Time;durP1;ratioP1;P1;durP2;ratioP2;P2;SDS_P1;SDS_P2;PMS_P1;PMS_P2;Temp;Humidity;BMP_temperature;BMP_pressure;BME280_temperature;BME280_humidity;BME280_pressure;Samples;Min_cycle;Max_cycle;Signal;HPM_P1;HPM_P2
2021/12/28 00:01:21;;;;;;;17.95;9.32;;;2.90;99.90;;;;;;5114705;28;20035;-62
2021/12/28 00:03:49;;;;;;;17.70;8.95;;;2.90;99.90;;;;;;5114572;28;20048;-62
2021/12/28 00:06:17;;;;;;;17.88;9.65;;;2.90;99.90;;;;;;5114615;28;20044;-62
2021/12/28 00:08:45;;;;;;;20.30;10.05;;;2.90;99.90;;;;;;5114432;28;20047;-62
2021/12/28 00:11:12;;;;;;;19.65;9.38;;;3.00;99.90;;;;;;5114719;28;20048;-62
2021/12/28 00:13:40;;;;;;;;;;;3.00;99.90;;;;;;5114872;28;20543;-62
2021/12/28 00:18:44;;;;;;;17.23;8.20;;;2.90;99.90;;;;;;5114384;28;20543;-62
2021/12/28 00:21:10;;;;;;;12.90;7.78;;;2.90;99.90;;;;;;5114424;28;20286;-62
2021/12/28 00:23:39;;;;;;;10.38;6.53;;;2.80;99.90;;;;;;5114213;28;20035;-62
2021/12/28 00:26:09;;;;;;;18.02;8.80;;;2.80;99.90;;;;;;5114005;28;20050;-61
2021/12/28 00:28:36;;;;;;;19.77;9.75;;;2.70;99.90;;;;;;5114162;28;20039;-62
2021/12/28 00:31:05;;;;;;;23.23;11.70;;;2.80;99.90;;;;;;5095794;28;20050;-61
2021/12/28 00:33:33;;;;;;;20.30;9.60;;;2.90;99.90;;;;;;5114175;28;20075;-62
2021/12/28 00:36:00;;;;;;;21.98;8.60;;;2.90;99.90;;;;;;5113630;28;20079;-62
2021/12/28 00:38:28;;;;;;;;;;;2.90;99.90;;;;;;5114462;28;20125;-62
2021/12/28 00:40:57;;;;;;;9.40;5.20;;;2.90;99.90;;;;;;5113720;28;19926;-62
2021/12/28 00:43:26;;;;;;;11.63;7.13;;;2.90;99.90;;;;;;5113607;28;20092;-62
2021/12/28 00:45:53;;;;;;;10.50;6.25;;;3.00;99.90;;;;;;5113515;28;20100;-62
2021/12/28 00:48:20;;;;;;;10.23;5.00;;;3.00;99.90;;;;;;5113873;28;20122;-62
2021/12/28 00:50:48;;;;;;;9.93;5.38;;;3.00;99.90;;;;;;5113964;28;20048;-61
2021/12/28 00:53:15;;;;;;;9.73;5.18;;;3.00;99.90;;;;;;5113806;28;20515;-61
2021/12/28 00:55:42;;;;;;;8.13;4.45;;;3.00;99.90;;;;;;5112943;28;20085;-62
2021/12/28 00:58:09;;;;;;;8.00;5.00;;;3.00;99.90;;;;;;5113590;28;20118;-62
2021/12/28 01:00:39;;;;;;;8.98;5.05;;;3.00;99.90;;;;;;5113713;28;20054;-62
2021/12/28 01:03:08;;;;;;;10.80;4.88;;;3.00;99.90;;;;;;5113965;28;20428;-62
2021/12/28 01:05:36;;;;;;;9.85;5.50;;;3.00;99.90;;;;;;5112877;28;20046;-62
2021/12/28 01:08:04;;;;;;;12.55;7.38;;;3.00;99.90;;;;;;5113487;28;20063;-61
2021/12/28 01:10:38;;;;;;;17.80;8.02;;;2.90;99.90;;;;;;5113235;28;20082;-61
2021/12/28 01:13:05;;;;;;;15.10;7.70;;;2.80;99.90;;;;;;5095396;28;20047;-61
2021/12/28 01:15:32;;;;;;;7.68;4.40;;;2.80;99.90;;;;;;5113010;28;20047;-61
2021/12/28 01:17:59;;;;;;;;;;;2.70;99.90;;;;;;5113705;28;20130;-61
2021/12/28 01:20:27;;;;;;;7.80;4.65;;;2.70;99.90;;;;;;5113196;28;19926;-61
2021/12/28 01:22:54;;;;;;;15.05;8.32;;;2.70;99.90;;;;;;5113106;28;20059;-61
2021/12/28 01:25:22;;;;;;;17.73;8.52;;;2.60;99.90;;;;;;5112618;28;20035;-62
2021/12/28 01:27:49;;;;;;;20.23;9.68;;;2.60;99.90;;;;;;5113376;28;20135;-62
2021/12/28 01:30:19;;;;;;;16.75;8.40;;;2.40;99.90;;;;;;5113049;28;20052;-61
2021/12/28 01:32:47;;;;;;;19.52;10.95;;;2.40;99.90;;;;;;5112961;28;20130;-61
2021/12/28 01:35:18;;;;;;;16.23;9.38;;;2.40;99.90;;;;;;5112380;28;20087;-62
2021/12/28 01:37:46;;;;;;;19.20;9.57;;;2.40;99.90;;;;;;5113036;28;20567;-61
2021/12/28 01:40:14;;;;;;;;;;;2.30;99.90;;;;;;5113141;28;20445;-61
2021/12/28 01:43:05;;;;;;;19.55;9.80;;;2.30;99.90;;;;;;5112649;28;19923;-61
2021/12/28 01:45:36;;;;;;;17.38;8.98;;;2.30;99.90;;;;;;5112355;28;20335;-61
2021/12/28 01:48:06;;;;;;;18.02;9.43;;;2.30;99.90;;;;;;5112154;28;20479;-61
2021/12/28 01:50:34;;;;;;;25.75;10.32;;;2.20;99.90;;;;;;5112570;28;20560;-62
2021/12/28 01:53:02;;;;;;;16.75;8.63;;;2.20;99.90;;;;;;5112665;28;20092;-62
2021/12/28 01:55:30;;;;;;;17.10;8.98;;;2.20;99.90;;;;;;5112101;28;20484;-61
2021/12/28 01:57:57;;;;;;;15.45;9.75;;;2.20;99.90;;;;;;5112651;28;20078;-61
2021/12/28 02:00:25;;;;;;;20.73;9.70;;;2.20;99.90;;;;;;5112195;28;20040;-61
2021/12/28 02:02:52;;;;;;;17.02;9.50;;;2.10;99.90;;;;;;5112435;28;20118;-61
2021/12/28 02:05:20;;;;;;;21.60;10.07;;;2.10;99.90;;;;;;5112059;28;20039;-62
2021/12/28 02:07:47;;;;;;;;;;;2.10;99.90;;;;;;5112873;28;20036;-61
2021/12/28 02:10:16;;;;;;;21.92;9.85;;;2.10;99.90;;;;;;5112437;28;19920;-61
2021/12/28 02:12:43;;;;;;;19.65;9.82;;;2.10;99.90;;;;;;5112247;28;20047;-61
2021/12/28 02:15:13;;;;;;;12.52;5.63;;;2.10;99.90;;;;;;5111726;28;20061;-62
2021/12/28 02:17:41;;;;;;;8.60;5.07;;;2.10;99.90;;;;;;5112289;28;20047;-61
2021/12/28 02:20:14;;;;;;;10.68;5.97;;;2.00;99.90;;;;;;5112172;28;20040;-61
2021/12/28 02:22:41;;;;;;;10.68;5.63;;;2.00;99.90;;;;;;5112221;28;20051;-61
2021/12/28 02:25:11;;;;;;;14.32;6.65;;;2.00;99.90;;;;;;5111655;28;20032;-61
2021/12/28 02:27:38;;;;;;;12.88;7.25;;;1.90;99.90;;;;;;5112000;28;20039;-61
2021/12/28 02:30:09;;;;;;;13.23;7.57;;;1.90;99.90;;;;;;5112128;28;20122;-61
2021/12/28 02:32:38;;;;;;;11.52;6.72;;;1.90;99.90;;;;;;5112109;28;20058;-62
2021/12/28 02:35:09;;;;;;;15.50;6.88;;;1.90;99.90;;;;;;5111635;28;20049;-62
2021/12/28 02:37:36;;;;;;;14.07;7.10;;;1.80;99.90;;;;;;5111891;28;20048;-61
2021/12/28 02:40:08;;;;;;;15.82;6.80;;;1.70;99.90;;;;;;5111737;28;20134;-61
2021/12/28 02:42:34;;;;;;;7.80;3.95;;;1.60;99.90;;;;;;5112004;28;20437;-61
2021/12/28 02:45:09;;;;;;;7.68;4.28;;;1.50;99.90;;;;;;5111798;28;20040;-61
2021/12/28 02:47:38;;;;;;;7.10;3.50;;;1.50;99.90;;;;;;5111820;28;20454;-61
2021/12/28 02:50:09;;;;;;;5.22;3.60;;;1.50;99.90;;;;;;5111897;28;20444;-61
2021/12/28 02:52:37;;;;;;;6.18;3.47;;;1.50;99.90;;;;;;5111736;28;20050;-61
2021/12/28 02:55:10;;;;;;;6.10;3.35;;;1.50;99.90;;;;;;5111877;28;20122;-62
2021/12/28 02:57:37;;;;;;;8.10;3.40;;;1.50;99.90;;;;;;5111738;28;20073;-61
2021/12/28 03:00:06;;;;;;;6.00;3.60;;;1.60;99.90;;;;;;5114848;28;20451;-61
2021/12/28 03:02:33;;;;;;;8.55;3.40;;;1.60;99.90;;;;;;5116015;28;20100;-61
2021/12/28 03:05:00;;;;;;;8.23;3.67;;;1.50;99.90;;;;;;5115555;28;20384;-61
2021/12/28 03:07:30;;;;;;;9.43;4.20;;;1.50;99.90;;;;;;5115609;28;20044;-61
2021/12/28 03:09:57;;;;;;;6.28;4.03;;;1.50;99.90;;;;;;5115733;28;20130;-61
2021/12/28 03:12:24;;;;;;;;;;;1.50;99.90;;;;;;5116180;28;20051;-61
2021/12/28 03:14:51;;;;;;;8.48;4.85;;;1.40;99.90;;;;;;5115601;28;19919;-62
2021/12/28 03:17:18;;;;;;;;;;;1.40;99.90;;;;;;5115812;28;20097;-61
2021/12/28 03:19:45;;;;;;;6.68;3.50;;;1.40;99.90;;;;;;5115449;28;19923;-63
2021/12/28 03:22:12;;;;;;;5.60;3.13;;;1.40;99.90;;;;;;5115699;28;20035;-61
2021/12/28 03:24:38;;;;;;;7.18;4.10;;;1.30;99.90;;;;;;5115516;28;20075;-61
2021/12/28 03:27:05;;;;;;;7.35;4.00;;;1.30;99.90;;;;;;5114910;28;20437;-61
2021/12/28 03:29:32;;;;;;;6.70;3.85;;;1.30;99.90;;;;;;5115489;28;20043;-62
2021/12/28 03:31:59;;;;;;;7.93;3.53;;;1.20;99.90;;;;;;5115258;28;20047;-61
2021/12/28 03:34:26;;;;;;;9.50;4.00;;;1.10;99.90;;;;;;5115351;28;20104;-61
2021/12/28 03:36:53;;;;;;;5.57;3.38;;;1.10;99.90;;;;;;5114931;28;20043;-61
2021/12/28 03:39:20;;;;;;;7.68;3.97;;;1.20;99.90;;;;;;5114949;28;20123;-60
2021/12/28 03:41:47;;;;;;;7.15;3.78;;;1.20;99.90;;;;;;5115302;28;20039;-61
2021/12/28 03:44:14;;;;;;;7.05;3.90;;;1.20;99.90;;;;;;5115100;28;20122;-61
2021/12/28 03:46:41;;;;;;;8.48;3.97;;;1.20;99.90;;;;;;5114630;28;20047;-61
2021/12/28 03:49:08;;;;;;;7.00;3.55;;;1.10;99.90;;;;;;5115097;28;20047;-61
2021/12/28 03:51:35;;;;;;;6.18;3.47;;;1.10;99.90;;;;;;5115118;28;20494;-61
2021/12/28 03:54:02;;;;;;;6.93;3.20;;;1.10;99.90;;;;;;5114758;28;20043;-61
2021/12/28 03:56:29;;;;;;;;;;;1.10;99.90;;;;;;5114994;28;20043;-61
2021/12/28 03:58:56;;;;;;;5.07;3.17;;;1.00;99.90;;;;;;5114800;28;19924;-61
2021/12/28 04:01:25;;;;;;;7.88;3.33;;;1.00;99.90;;;;;;5114741;28;20398;-61
2021/12/28 04:03:52;;;;;;;4.72;3.00;;;1.00;99.90;;;;;;5114647;28;20123;-61
2021/12/28 04:06:20;;;;;;;6.10;3.22;;;0.90;99.90;;;;;;5114331;28;20575;-61
2021/12/28 04:08:49;;;;;;;5.78;3.45;;;0.80;99.90;;;;;;5114703;28;20059;-61
2021/12/28 04:13:48;;;;;;;8.00;3.92;;;0.90;99.90;;;;;;5114464;28;20050;-61
2021/12/28 04:16:16;;;;;;;7.80;4.35;;;0.80;99.90;;;;;;5114360;28;20462;-61
2021/12/28 04:18:43;;;;;;;8.48;5.13;;;0.80;99.90;;;;;;5114433;28;20048;-61
2021/12/28 04:21:11;;;;;;;10.40;5.13;;;0.90;99.90;;;;;;5114358;28;20093;-61
2021/12/28 04:23:38;;;;;;;10.18;5.60;;;0.90;99.90;;;;;;5114455;28;20039;-61
2021/12/28 04:26:06;;;;;;;13.02;6.40;;;0.80;99.90;;;;;;5128227;22;20213;-66
2021/12/28 04:28:33;;;;;;;14.95;7.43;;;0.80;99.90;;;;;;5113890;28;20046;-66
2021/12/28 04:31:00;;;;;;;17.80;7.07;;;0.80;99.90;;;;;;5114758;28;20051;-65
2021/12/28 04:33:27;;;;;;;11.63;7.38;;;0.80;99.90;;;;;;5114183;28;20043;-66
2021/12/28 04:35:54;;;;;;;13.10;7.43;;;0.80;99.90;;;;;;5113629;28;20130;-65
2021/12/28 04:38:21;;;;;;;10.38;5.30;;;0.80;99.90;;;;;;5114160;28;20492;-65
2021/12/28 04:40:48;;;;;;;8.90;5.93;;;0.90;99.90;;;;;;5113904;28;20480;-65
2021/12/28 04:43:16;;;;;;;5.15;2.70;;;0.90;99.90;;;;;;5113975;28;20043;-66
2021/12/28 04:45:42;;;;;;;10.13;5.10;;;1.00;99.90;;;;;;5108232;28;20048;-66
2021/12/28 04:48:09;;;;;;;10.00;5.63;;;0.70;99.90;;;;;;5104390;28;20069;-65
2021/12/28 04:50:38;;;;;;;11.30;6.90;;;0.50;99.90;;;;;;5113518;28;20127;-66
2021/12/28 04:53:10;;;;;;;11.93;7.30;;;0.30;99.90;;;;;;5113348;28;20043;-65
2021/12/28 04:55:43;;;;;;;16.08;7.85;;;0.40;99.90;;;;;;5113122;28;20438;-65
2021/12/28 04:58:10;;;;;;;13.15;7.45;;;0.50;99.90;;;;;;5113176;28;20035;-65
2021/12/28 05:00:38;;;;;;;;;;;0.60;99.90;;;;;;5113866;28;20104;-66
2021/12/28 05:03:05;;;;;;;13.55;6.35;;;0.60;99.90;;;;;;5113387;28;19970;-66
2021/12/28 05:05:33;;;;;;;10.35;6.63;;;0.70;99.90;;;;;;5094378;28;20104;-66
2021/12/28 05:08:02;;;;;;;10.75;5.88;;;0.70;99.90;;;;;;5112964;28;20040;-66
2021/12/28 05:10:29;;;;;;;11.45;6.30;;;0.80;99.90;;;;;;5113267;28;20043;-66
2021/12/28 05:12:56;;;;;;;16.05;6.93;;;0.70;99.90;;;;;;5112987;28;20118;-65
2021/12/28 05:15:23;;;;;;;14.88;6.68;;;0.70;99.90;;;;;;5111741;28;20081;-66
2021/12/28 05:17:50;;;;;;;10.52;6.20;;;0.80;99.90;;;;;;5092595;28;20051;-66
2021/12/28 05:20:16;;;;;;;14.50;7.55;;;0.70;99.90;;;;;;5092393;28;20055;-66
2021/12/28 05:22:43;;;;;;;14.32;7.50;;;0.80;99.90;;;;;;5091436;28;20111;-66
2021/12/28 05:25:10;;;;;;;12.13;7.47;;;0.70;99.90;;;;;;5091772;28;20492;-66
2021/12/28 05:27:38;;;;;;;11.68;7.57;;;0.80;99.90;;;;;;5108293;28;20122;-66
2021/12/28 05:30:06;;;;;;;17.23;6.78;;;0.70;99.90;;;;;;5112789;28;20422;-66
2021/12/28 05:32:34;;;;;;;12.82;7.18;;;0.70;99.90;;;;;;5112493;28;20036;-66
2021/12/28 05:35:02;;;;;;;14.13;6.90;;;0.70;99.90;;;;;;5112492;28;20047;-66
2021/12/28 05:37:29;;;;;;;13.10;7.22;;;0.70;99.90;;;;;;5098179;28;20040;-66
2021/12/28 05:39:56;;;;;;;11.57;6.13;;;0.80;99.90;;;;;;5092178;28;20047;-66
2021/12/28 05:42:25;;;;;;;12.52;6.68;;;0.80;99.90;;;;;;5092231;28;20044;-66
2021/12/28 05:44:52;;;;;;;12.35;6.78;;;0.70;99.90;;;;;;5092085;28;20093;-66
2021/12/28 05:47:19;;;;;;;9.18;5.65;;;0.70;99.90;;;;;;5101592;28;20043;-66
2021/12/28 05:49:47;;;;;;;16.35;6.90;;;0.70;99.90;;;;;;5112090;28;20052;-65
2021/12/28 05:52:14;;;;;;;;;;;0.70;99.90;;;;;;5112842;28;20086;-65
2021/12/28 05:54:40;;;;;;;11.07;5.95;;;0.70;99.90;;;;;;5111970;28;20383;-65
2021/12/28 05:57:08;;;;;;;11.05;6.85;;;0.80;99.90;;;;;;5111194;28;20039;-65
2021/12/28 05:59:36;;;;;;;16.40;7.75;;;0.60;99.90;;;;;;5107742;28;20039;-65
2021/12/28 06:02:04;;;;;;;13.32;7.07;;;0.60;99.90;;;;;;5101881;28;20042;-65
2021/12/28 06:04:32;;;;;;;15.95;6.97;;;0.60;99.90;;;;;;5100213;28;20040;-66
2021/12/28 06:06:59;;;;;;;16.52;7.68;;;0.60;99.90;;;;;;5098060;28;20085;-66
2021/12/28 06:09:26;;;;;;;;;;;0.60;99.90;;;;;;5091698;28;20062;-65
2021/12/28 06:11:53;;;;;;;15.43;7.55;;;0.50;99.90;;;;;;5091756;28;20011;-66
2021/12/28 06:14:20;;;;;;;18.05;7.97;;;0.50;99.90;;;;;;5091458;28;20040;-65
2021/12/28 06:16:47;;;;;;;14.27;7.03;;;0.50;99.90;;;;;;5090596;28;20083;-66
2021/12/28 06:19:14;;;;;;;12.80;7.05;;;0.50;99.90;;;;;;5091623;28;20097;-65
2021/12/28 06:21:42;;;;;;;12.38;6.10;;;0.50;99.90;;;;;;5091645;28;20488;-66
2021/12/28 06:24:09;;;;;;;11.25;5.95;;;0.60;99.90;;;;;;5091393;28;20120;-65
2021/12/28 06:26:36;;;;;;;9.57;5.45;;;0.60;99.90;;;;;;5090552;28;20538;-65
2021/12/28 06:29:05;;;;;;;8.20;5.20;;;0.70;99.90;;;;;;5091369;28;20535;-65
2021/12/28 06:31:33;;;;;;;10.40;5.13;;;0.70;99.90;;;;;;5091111;28;20052;-65
2021/12/28 06:34:02;;;;;;;11.52;5.53;;;0.90;99.90;;;;;;5091291;28;20048;-65
2021/12/28 06:36:29;;;;;;;11.32;5.80;;;0.90;99.90;;;;;;5072453;28;20047;-66
2021/12/28 06:38:56;;;;;;;;;;;0.90;99.90;;;;;;5091736;28;20044;-66
2021/12/28 06:41:23;;;;;;;8.18;4.40;;;1.00;99.90;;;;;;5091052;28;20280;-65
2021/12/28 06:43:50;;;;;;;9.38;4.68;;;1.00;99.90;;;;;;5091036;28;20123;-66
2021/12/28 06:46:18;;;;;;;8.00;5.28;;;1.10;99.90;;;;;;5096739;28;20403;-65
2021/12/28 06:48:45;;;;;;;;;;;1.00;99.90;;;;;;5111991;28;20503;-65
2021/12/28 06:51:12;;;;;;;11.68;5.22;;;1.10;99.90;;;;;;5108168;28;19926;-65
2021/12/28 06:53:40;;;;;;;10.48;5.18;;;1.10;99.90;;;;;;5111295;28;20114;-65
2021/12/28 06:56:08;;;;;;;9.10;4.60;;;1.10;99.90;;;;;;5099207;28;20097;-65
2021/12/28 06:58:36;;;;;;;10.73;5.13;;;1.00;99.90;;;;;;5110315;28;20506;-65
2021/12/28 07:01:03;;;;;;;;;;;1.00;99.90;;;;;;5106744;28;20518;-65
2021/12/28 07:03:30;;;;;;;9.45;4.90;;;1.00;99.90;;;;;;5110519;28;19954;-65
2021/12/28 07:05:57;;;;;;;12.18;4.97;;;1.10;99.90;;;;;;5096757;28;20063;-65
2021/12/28 07:08:25;;;;;;;10.07;5.28;;;1.20;99.90;;;;;;5090986;28;20043;-65
2021/12/28 07:10:52;;;;;;;10.15;5.22;;;1.20;99.90;;;;;;5094436;28;20373;-65
2021/12/28 07:13:19;;;;;;;8.93;4.70;;;1.20;99.90;;;;;;5111377;28;20043;-65
2021/12/28 07:15:47;;;;;;;8.60;5.88;;;1.20;99.90;;;;;;5110348;28;20496;-65
2021/12/28 07:18:14;;;;;;;7.70;3.97;;;1.20;99.90;;;;;;5111271;28;20567;-65
2021/12/28 07:20:41;;;;;;;11.32;5.32;;;1.30;99.90;;;;;;5110724;28;20047;-65
2021/12/28 07:23:08;;;;;;;22.08;9.20;;;1.30;99.90;;;;;;5111290;28;20565;-65
2021/12/28 07:25:35;;;;;;;22.38;10.10;;;1.30;99.90;;;;;;5110010;28;20050;-65
2021/12/28 07:28:03;;;;;;;30.27;14.20;;;1.40;99.90;;;;;;5111255;28;20089;-65
2021/12/28 07:30:30;;;;;;;11.10;6.75;;;1.40;99.90;;;;;;5110449;28;20172;-65
2021/12/28 07:32:57;;;;;;;10.35;4.53;;;1.40;99.90;;;;;;5091384;28;20048;-65
2021/12/28 07:35:24;;;;;;;;;;;1.50;99.90;;;;;;5090576;28;20036;-65
2021/12/28 07:37:52;;;;;;;12.35;6.25;;;1.50;99.90;;;;;;5090784;28;19920;-65
2021/12/28 07:40:21;;;;;;;9.63;5.93;;;1.50;99.90;;;;;;5090722;28;20048;-65
2021/12/28 07:42:48;;;;;;;11.68;6.45;;;1.50;99.90;;;;;;5090394;28;20122;-65
2021/12/28 07:45:15;;;;;;;14.98;6.75;;;1.60;99.90;;;;;;5091449;28;20067;-65
2021/12/28 07:47:43;;;;;;;14.23;6.45;;;1.70;99.90;;;;;;5094312;28;20086;-66
2021/12/28 07:50:12;;;;;;;14.20;7.47;;;1.70;99.90;;;;;;5097439;28;20036;-66
2021/12/28 07:52:41;;;;;;;16.77;6.88;;;1.70;99.90;;;;;;5104675;28;20088;-66
2021/12/28 07:55:09;;;;;;;15.27;6.90;;;1.80;99.90;;;;;;5103545;28;20032;-65
2021/12/28 07:57:36;;;;;;;11.63;7.20;;;1.80;99.90;;;;;;5113749;28;20073;-66
2021/12/28 08:00:06;;;;;;;13.50;6.70;;;1.70;99.90;;;;;;5112501;28;20040;-66
2021/12/28 08:02:38;;;;;;;11.57;5.90;;;1.70;99.90;;;;;;5104688;28;20043;-65
2021/12/28 08:05:05;;;;;;;11.23;6.13;;;1.80;99.90;;;;;;5098819;28;20134;-65
2021/12/28 08:07:32;;;;;;;12.00;6.60;;;1.80;99.90;;;;;;5103475;28;20126;-65
2021/12/28 08:09:59;;;;;;;11.52;6.95;;;1.80;99.90;;;;;;5102267;28;20097;-66
2021/12/28 08:12:26;;;;;;;11.18;5.80;;;1.80;99.90;;;;;;5104008;28;20503;-65
2021/12/28 08:14:53;;;;;;;11.50;5.88;;;1.90;99.90;;;;;;5093669;28;20122;-65
2021/12/28 08:17:20;;;;;;;25.00;13.68;;;1.90;99.90;;;;;;5092964;28;20044;-66
2021/12/28 08:19:47;;;;;;;16.48;9.25;;;1.90;99.90;;;;;;5093565;28;20491;-65
2021/12/28 08:22:14;;;;;;;12.77;8.40;;;1.90;99.90;;;;;;5093792;28;20048;-66
2021/12/28 08:24:41;;;;;;;9.27;5.63;;;2.00;99.90;;;;;;5093648;28;20071;-66
2021/12/28 08:27:08;;;;;;;;;;;2.00;99.90;;;;;;5093397;28;20389;-66
2021/12/28 08:29:35;;;;;;;9.88;5.30;;;2.10;99.90;;;;;;5075638;28;20285;-66
2021/12/28 08:32:07;;;;;;;14.48;5.65;;;2.20;99.90;;;;;;5093482;28;20051;-66
2021/12/28 08:34:34;;;;;;;;;;;2.10;99.90;;;;;;5104473;28;20063;-64
2021/12/28 08:37:01;;;;;;;12.23;6.05;;;2.10;99.90;;;;;;5100614;28;20391;-66
2021/12/28 08:39:28;;;;;;;12.20;6.07;;;2.10;99.90;;;;;;5102224;28;20560;-66
2021/12/28 08:41:55;;;;;;;10.63;5.25;;;2.10;99.90;;;;;;5107636;28;20051;-66
2021/12/28 08:44:22;;;;;;;10.55;5.40;;;2.10;99.90;;;;;;5109778;28;20225;-66
2021/12/28 08:46:48;;;;;;;9.95;5.60;;;2.10;99.90;;;;;;5095393;28;20055;-66
2021/12/28 08:49:16;;;;;;;12.20;6.43;;;2.20;99.90;;;;;;5104303;28;20115;-63
2021/12/28 08:51:43;;;;;;;12.10;6.13;;;2.20;99.90;;;;;;5092807;28;20424;-63
2021/12/28 08:54:09;;;;;;;10.48;5.72;;;2.20;99.90;;;;;;5093042;28;20097;-62
2021/12/28 08:56:36;;;;;;;7.13;4.53;;;2.30;99.90;;;;;;5073939;28;20455;-64
2021/12/28 08:59:03;;;;;;;7.20;4.45;;;2.40;99.90;;;;;;5092848;28;20040;-62
2021/12/28 09:01:30;;;;;;;7.40;4.22;;;2.40;99.90;;;;;;5092692;28;20044;-63
2021/12/28 09:03:57;;;;;;;11.52;5.15;;;2.50;99.90;;;;;;5092735;28;20051;-62
2021/12/28 09:06:24;;;;;;;6.93;3.20;;;2.60;99.90;;;;;;5091907;28;20093;-63
2021/12/28 09:08:51;;;;;;;10.27;4.40;;;2.60;99.90;;;;;;5092620;28;20123;-62
2021/12/28 09:11:18;;;;;;;4.65;2.63;;;2.70;99.90;;;;;;5092679;28;20036;-62
2021/12/28 09:13:45;;;;;;;9.98;4.40;;;2.80;99.90;;;;;;5092473;28;20044;-62
2021/12/28 09:16:12;;;;;;;11.07;4.78;;;2.90;99.90;;;;;;5091676;28;20052;-62
2021/12/28 09:18:40;;;;;;;;;;;3.00;99.90;;;;;;5092787;28;20044;-62
2021/12/28 09:21:07;;;;;;;9.98;5.60;;;3.00;99.90;;;;;;5092479;28;19946;-61
2021/12/28 09:23:34;;;;;;;13.80;6.68;;;3.00;99.90;;;;;;5092596;28;20040;-63
2021/12/28 09:26:21;;;;;;;17.00;8.18;;;3.10;99.90;;;;;;5091069;28;20150;-63
2021/12/28 09:28:49;;;;;;;11.13;5.45;;;3.10;99.90;;;;;;5091933;28;20090;-63
2021/12/28 09:31:16;;;;;;;5.80;3.72;;;3.20;99.90;;;;;;5091940;28;20492;-63
2021/12/28 09:33:43;;;;;;;7.30;4.13;;;3.20;99.90;;;;;;5092021;28;20040;-62
2021/12/28 09:36:14;;;;;;;7.05;4.03;;;3.20;99.90;;;;;;5090862;28;20037;-62
2021/12/28 09:38:43;;;;;;;8.30;4.15;;;3.20;99.90;;;;;;5091512;28;20558;-62
2021/12/28 09:41:11;;;;;;;9.93;4.78;;;3.20;99.90;;;;;;5092094;28;20449;-63
2021/12/28 09:43:39;;;;;;;9.15;4.90;;;3.20;99.90;;;;;;5091172;28;20515;-62
2021/12/28 09:46:07;;;;;;;6.53;4.25;;;3.20;99.90;;;;;;5089467;28;20452;-62
2021/12/28 09:48:34;;;;;;;10.60;4.55;;;3.20;99.90;;;;;;5089266;28;20048;-63
2021/12/28 09:51:03;;;;;;;10.02;5.20;;;3.30;99.90;;;;;;5090284;28;20051;-62
2021/12/28 09:53:30;;;;;;;10.23;4.97;;;3.40;99.90;;;;;;5090435;28;20114;-62
2021/12/28 09:55:57;;;;;;;9.45;4.40;;;3.50;99.90;;;;;;5090194;28;20146;-62
2021/12/28 09:58:24;;;;;;;;;;;3.70;99.90;;;;;;5091090;28;20040;-63
2021/12/28 10:01:03;;;;;;;9.90;4.40;;;3.90;99.90;;;;;;5091336;28;19924;-63
2021/12/28 10:03:32;;;;;;;9.35;3.90;;;4.10;99.90;;;;;;5091251;28;20159;-63
2021/12/28 10:06:01;;;;;;;6.88;4.05;;;4.20;99.90;;;;;;5090522;28;20048;-63
2021/12/28 10:08:28;;;;;;;10.93;4.90;;;4.30;99.90;;;;;;5090718;28;20101;-63
2021/12/28 10:10:57;;;;;;;11.98;5.47;;;4.30;99.90;;;;;;5091460;28;20089;-62
2021/12/28 10:13:31;;;;;;;8.18;4.57;;;4.40;99.90;;;;;;5091139;28;20040;-62
2021/12/28 10:15:58;;;;;;;8.35;5.13;;;4.40;99.90;;;;;;5090316;28;20044;-62
2021/12/28 10:18:26;;;;;;;8.55;4.60;;;4.40;99.90;;;;;;5091200;28;20093;-60
2021/12/28 10:20:59;;;;;;;6.72;4.88;;;4.30;99.90;;;;;;5093766;28;20046;-62
2021/12/28 10:23:28;;;;;;;7.75;4.30;;;4.20;99.90;;;;;;5105748;28;20039;-62
2021/12/28 10:26:02;;;;;;;10.43;4.93;;;4.10;99.90;;;;;;5109585;22;20044;-59
2021/12/28 10:28:36;;;;;;;10.55;5.13;;;4.20;99.90;;;;;;5089781;28;20122;-59
2021/12/28 10:31:09;;;;;;;8.57;4.75;;;4.30;99.90;;;;;;5088294;28;20089;-59
2021/12/28 10:33:39;;;;;;;9.30;6.13;;;4.40;99.90;;;;;;5088120;28;20122;-59
2021/12/28 10:36:10;;;;;;;8.55;6.07;;;4.30;99.90;;;;;;5081310;28;20119;-59
2021/12/28 10:38:40;;;;;;;12.88;5.40;;;4.20;99.90;;;;;;5081337;28;20505;-58
2021/12/28 10:41:18;;;;;;;8.63;5.45;;;4.20;99.90;;;;;;5080650;28;20086;-58
2021/12/28 10:43:50;;;;;;;10.38;5.53;;;4.20;99.90;;;;;;5077593;28;20075;-59
2021/12/28 10:46:22;;;;;;;9.35;5.57;;;4.20;99.90;;;;;;5079406;28;20044;-59
2021/12/28 10:48:51;;;;;;;8.68;5.43;;;4.30;99.90;;;;;;5090151;28;20037;-59
2021/12/28 10:51:21;;;;;;;9.85;5.70;;;4.40;99.90;;;;;;5060265;28;20058;-59
2021/12/28 10:56:30;;;;;;;9.02;5.47;;;4.70;99.90;;;;;;5076730;28;20097;-59
2021/12/28 10:58:57;;;;;;;7.40;4.85;;;4.80;99.90;;;;;;5089729;28;20044;-59
2021/12/28 11:01:27;;;;;;;11.43;5.53;;;4.70;99.90;;;;;;5091539;28;20040;-59
2021/12/28 11:03:56;;;;;;;8.02;5.00;;;4.80;99.90;;;;;;5091445;28;20036;-59
2021/12/28 11:06:27;;;;;;;9.75;5.18;;;4.90;99.90;;;;;;5090362;28;20051;-59
2021/12/28 11:08:58;;;;;;;9.52;5.18;;;4.90;99.90;;;;;;5091431;28;20029;-59
2021/12/28 11:11:27;;;;;;;10.32;5.40;;;4.70;99.90;;;;;;5091482;28;20147;-58
2021/12/28 11:13:55;;;;;;;;;;;4.60;99.90;;;;;;5091674;28;20044;-59
2021/12/28 11:16:26;;;;;;;9.90;5.20;;;4.70;99.90;;;;;;5090498;28;19975;-59
2021/12/28 11:18:56;;;;;;;10.52;5.78;;;4.80;99.90;;;;;;5091122;28;20048;-59
2021/12/28 11:21:25;;;;;;;8.35;4.90;;;5.00;99.90;;;;;;5094450;28;20506;-59
2021/12/28 11:23:55;;;;;;;11.93;5.15;;;5.20;99.90;;;;;;5094952;28;20040;-59
2021/12/28 11:26:32;;;;;;;8.93;5.20;;;5.30;99.90;;;;;;5094448;28;20093;-59
2021/12/28 11:29:04;;;;;;;9.13;5.53;;;5.30;99.90;;;;;;5094994;28;20063;-59
2021/12/28 11:31:39;;;;;;;8.70;5.45;;;5.30;99.90;;;;;;5094967;28;20101;-59
2021/12/28 11:34:31;;;;;;;9.27;5.03;;;5.20;99.90;;;;;;5094937;28;20044;-59
2021/12/28 11:37:03;;;;;;;9.82;5.53;;;5.20;99.90;;;;;;5094444;28;20105;-59
2021/12/28 11:39:45;;;;;;;8.98;5.18;;;5.10;99.90;;;;;;5094758;28;20048;-59
2021/12/28 11:42:14;;;;;;;10.32;5.35;;;5.20;99.90;;;;;;5094621;28;20039;-59
2021/12/28 11:44:42;;;;;;;10.55;5.85;;;5.30;99.90;;;;;;5094705;28;20044;-58
2021/12/28 11:47:12;;;;;;;9.65;5.80;;;5.40;99.90;;;;;;5094048;28;20044;-59
2021/12/28 11:49:41;;;;;;;11.00;6.40;;;5.50;99.90;;;;;;5094641;28;20553;-59
2021/12/28 11:52:12;;;;;;;11.50;5.85;;;5.60;99.90;;;;;;5076574;28;20055;-59
2021/12/28 11:54:44;;;;;;;9.05;4.85;;;5.90;99.90;;;;;;5094727;28;20079;-59
2021/12/28 11:57:13;;;;;;;9.70;5.75;;;6.10;99.90;;;;;;5093837;28;20101;-59
2021/12/28 11:59:49;;;;;;;8.85;5.20;;;6.20;99.90;;;;;;5094394;28;20574;-59
2021/12/28 12:02:16;;;;;;;8.60;4.63;;;6.40;99.90;;;;;;5094528;28;20059;-59
2021/12/28 12:04:48;;;;;;;7.70;4.70;;;6.50;99.90;;;;;;5094002;28;20059;-59
2021/12/28 12:07:15;;;;;;;7.93;5.53;;;6.30;99.90;;;;;;5093799;28;20700;-59
2021/12/28 12:09:54;;;;;;;8.15;5.07;;;6.10;99.90;;;;;;5094241;28;20480;-59
2021/12/28 12:12:28;;;;;;;7.97;4.80;;;5.90;99.90;;;;;;5094173;28;20050;-59
2021/12/28 12:14:57;;;;;;;7.93;4.82;;;5.90;99.90;;;;;;5093928;28;20093;-59
2021/12/28 12:17:27;;;;;;;7.63;4.85;;;5.90;99.90;;;;;;5093430;28;20054;-59
2021/12/28 12:20:00;;;;;;;8.38;4.75;;;6.00;99.90;;;;;;5093944;28;20508;-59
2021/12/28 12:22:29;;;;;;;9.10;5.32;;;6.10;99.90;;;;;;5093936;28;20504;-59
2021/12/28 12:24:59;;;;;;;9.00;4.88;;;6.20;99.90;;;;;;5093697;28;20044;-59
2021/12/28 12:27:50;;;;;;;10.43;6.43;;;6.20;99.90;;;;;;5093553;28;20040;-59
2021/12/28 12:30:17;;;;;;;16.67;9.25;;;6.10;99.90;;;;;;5093581;28;20083;-59
2021/12/28 12:32:56;;;;;;;13.15;8.43;;;6.10;99.90;;;;;;5093516;28;20048;-59
2021/12/28 12:35:58;;;;;;;11.07;7.60;;;6.00;99.90;;;;;;5093204;28;20093;-59
2021/12/28 12:38:25;;;;;;;11.07;7.50;;;6.00;99.90;;;;;;5093871;28;20044;-59
2021/12/28 12:40:59;;;;;;;11.57;7.53;;;6.00;99.90;;;;;;5093439;28;20039;-59
2021/12/28 12:43:39;;;;;;;24.88;11.23;;;6.10;99.90;;;;;;5093579;28;20097;-59
2021/12/28 12:46:20;;;;;;;19.75;10.25;;;6.10;99.90;;;;;;5092867;28;20040;-59
2021/12/28 12:48:53;;;;;;;17.33;9.73;;;6.00;99.90;;;;;;5093509;28;20044;-59
2021/12/28 12:51:20;;;;;;;26.65;12.32;;;6.00;99.90;;;;;;5093355;28;20074;-59
2021/12/28 12:53:53;;;;;;;17.73;9.85;;;5.80;99.90;;;;;;5093482;28;20044;-59
2021/12/28 12:56:26;;;;;;;21.98;10.45;;;5.80;99.90;;;;;;5092652;28;20072;-59
2021/12/28 12:58:57;;;;;;;21.88;10.98;;;5.70;99.90;;;;;;5093199;28;20040;-59
2021/12/28 13:01:27;;;;;;;35.22;18.17;;;5.70;99.90;;;;;;5093144;28;20040;-59
2021/12/28 13:03:56;;;;;;;56.38;26.63;;;5.60;99.90;;;;;;5093167;28;20277;-59
2021/12/28 13:06:41;;;;;;;56.35;25.83;;;5.60;99.90;;;;;;5092592;28;20036;-59
2021/12/28 13:09:13;;;;;;;23.35;13.95;;;5.70;99.90;;;;;;5093051;28;20040;-59
2021/12/28 13:11:43;;;;;;;63.33;33.25;;;5.70;99.90;;;;;;5092863;28;20052;-59